Impacts TAF Board
For situational awareness. Not to be used for flight planning purposes.
IDs:

KLAX - Los Angeles Intl, CA, US

Issued at 1505 UTC 16 Feb 2019
Updated at 1511 UTC 16 Feb 2019
Potential Impact None Slight Moderate High
Time<<17/04Z 17/05Z 17/06Z 17/07Z 17/08Z 17/09Z 17/10Z 17/11Z 17/12Z 17/13Z 17/14Z 17/15Z 17/16Z>>
Type PRVL PRVL PRVL PRVL PRVL PRVL PRVL PRVL PRVL PRVL PRVL
  [PRB30]  
PRVL
  [PRB30]  
PRVL
  [PRB30]  
VIS >6 >6 >6 >6 >6 >6 >6 >6 >6 >6 >6 >6 >6
CIG -- -- -- -- -- -- 50 50 50 50 50
  [30]  
50
  [30]  
50
  [30]  
Cover SCT SCT SCT SCT SCT SCT BKN BKN BKN BKN BKN
  [BKN]  
BKN
  [BKN]  
BKN
  [BKN]  
FltCat VFR VFR VFR VFR VFR VFR VFR VFR VFR VFR VFR
  [MVFR]  
VFR
  [MVFR]  
VFR
  [MVFR]  
WX -- -- -- -- -- -- -- -- -- -- --
  [-SHRA]  
--
  [-SHRA]  
--
  [-SHRA]  
WDir 270 280 280 280 280 280 290 290 290 290 290
[290]
290
[290]
290
[290]
WSpd 20 14 14 14 14 14 12 12 12 12 12
  [12]  
12
  [12]  
12
  [12]  
WGst 28 22 22 22 22 22 -- -- -- -- --
  [--]  
--
  [--]  
--
  [--]  
Raw TAF
KLAX 161505Z 1615/1718 32006KT P6SM SCT250
  FM161700 26012KT P6SM SCT050
  FM162000 27020G28KT P6SM SCT050
  FM170500 28014G22KT P6SM SCT050
  FM171000 29012KT P6SM SCT030 BKN050
  PROB30 1714/1718 -SHRA BKN030


METAR Board
Radar Display
Forecast Discussion
For situational awareness. Not to be used for flight planning purposes.